createdAt,value
2023-04-06T00:01:59.642Z,7.20
2023-04-06T00:04:27.749Z,7.20
2023-04-06T00:06:55.383Z,7.20
2023-04-06T00:09:22.998Z,7.20
2023-04-06T05:34:05.993Z,2.70
2023-04-06T05:36:34.150Z,2.80
2023-04-06T05:39:01.746Z,2.90
2023-04-06T05:41:29.347Z,2.90
2023-04-06T05:43:56.896Z,3.00
2023-04-06T05:55:37.878Z,3.50
2023-04-06T05:58:05.568Z,3.50
2023-04-06T06:00:33.249Z,3.50
2023-04-06T06:03:01.169Z,3.60
2023-04-06T06:05:29.866Z,3.70
2023-04-06T06:07:57.763Z,3.70
2023-04-06T06:10:25.233Z,3.80
2023-04-06T06:12:52.842Z,3.90
2023-04-06T06:15:20.470Z,3.90
2023-04-06T06:17:48.006Z,4.00
2023-04-06T06:20:16.296Z,4.00
2023-04-06T06:22:43.769Z,4.00
2023-04-06T06:25:11.254Z,4.10
2023-04-06T06:27:38.873Z,4.10
2023-04-06T06:30:07.826Z,4.20
2023-04-06T06:32:35.568Z,4.30
2023-04-06T06:35:03.848Z,4.30
2023-04-06T06:37:31.550Z,4.20
2023-04-06T06:39:59.461Z,4.30
2023-04-06T06:42:27.259Z,4.30
2023-04-06T06:44:56.166Z,4.40
2023-04-06T06:47:23.782Z,4.50
2023-04-06T06:49:51.600Z,4.50
2023-04-06T06:52:19.943Z,4.50
2023-04-06T06:54:47.433Z,4.50
2023-04-06T06:57:14.954Z,4.50
2023-04-06T06:59:42.606Z,4.60
2023-04-06T07:02:10.256Z,4.70
2023-04-06T07:04:37.878Z,4.80
2023-04-06T07:07:05.651Z,4.80
2023-04-06T07:09:34.456Z,4.80
2023-04-06T07:12:03.058Z,4.90
2023-04-06T07:14:30.795Z,5.00
2023-04-06T07:16:58.386Z,5.10
2023-04-06T07:19:26.019Z,5.20
2023-04-06T07:21:53.850Z,5.20
2023-04-06T07:24:21.386Z,5.30
2023-04-06T07:26:48.874Z,5.40
2023-04-06T07:29:16.504Z,5.50
2023-04-06T07:31:43.968Z,5.50
2023-04-06T07:34:11.453Z,5.60
2023-04-06T07:36:39.004Z,5.60
2023-04-06T07:39:08.373Z,5.70
2023-04-06T07:41:35.907Z,5.80
2023-04-06T07:44:04.389Z,5.90
2023-04-06T07:46:33.008Z,6.00
2023-04-06T07:49:02.317Z,6.10
2023-04-06T07:51:29.960Z,6.20
2023-04-06T07:53:57.702Z,6.20
2023-04-06T07:56:26.164Z,6.30
2023-04-06T07:58:56.736Z,6.40
2023-04-06T08:01:24.266Z,6.50
2023-04-06T08:03:52.130Z,6.50
2023-04-06T08:06:19.724Z,6.60
2023-04-06T08:08:47.189Z,6.70
2023-04-06T08:11:14.712Z,6.70
2023-04-06T08:13:42.296Z,6.80
2023-04-06T08:16:09.940Z,6.90
2023-04-06T08:18:37.461Z,7.00
2023-04-06T08:21:05.108Z,7.10
2023-04-06T08:23:32.893Z,7.20
2023-04-06T08:26:00.630Z,7.30
2023-04-06T08:28:28.272Z,7.40
2023-04-06T08:30:55.888Z,7.50
2023-04-06T08:33:23.461Z,7.60
2023-04-06T08:35:52.523Z,7.70
2023-04-06T08:38:20.070Z,7.90
2023-04-06T08:40:49.108Z,8.00
2023-04-06T08:43:20.678Z,8.10
2023-04-06T08:45:48.282Z,8.10
2023-04-06T08:48:17.952Z,8.20
2023-04-06T08:50:46.253Z,8.30
2023-04-06T08:53:14.499Z,8.30
2023-04-06T08:55:44.595Z,8.40
2023-04-06T08:58:12.305Z,8.40
2023-04-06T09:00:41.121Z,8.60
2023-04-06T09:03:09.858Z,8.70
2023-04-06T09:05:37.765Z,8.80
2023-04-06T09:08:05.432Z,8.90
2023-04-06T09:10:34.225Z,9.00
2023-04-06T09:13:09.972Z,9.00
2023-04-06T09:15:38.499Z,9.10
2023-04-06T09:18:06.803Z,9.30
2023-04-06T09:20:34.728Z,9.30
2023-04-06T09:23:02.181Z,9.50
2023-04-06T09:25:31.189Z,9.70
2023-04-06T09:28:08.235Z,9.70
2023-04-06T09:30:37.056Z,9.80
2023-04-06T09:33:04.724Z,9.90
2023-04-06T09:35:34.137Z,10.10
2023-04-06T09:38:13.282Z,10.20
2023-04-06T09:41:00.940Z,10.30
2023-04-06T09:43:30.266Z,10.40
2023-04-06T09:46:00.053Z,10.50
2023-04-06T09:48:30.127Z,10.60
2023-04-06T09:51:05.386Z,10.60
2023-04-06T09:53:36.961Z,10.80
2023-04-06T09:56:07.213Z,10.90
2023-04-06T09:58:40.504Z,10.90
2023-04-06T10:01:18.905Z,11.00
2023-04-06T10:04:23.427Z,11.20
2023-04-06T10:06:53.597Z,11.30
2023-04-06T10:09:29.275Z,11.40
2023-04-06T10:11:59.387Z,11.50
2023-04-06T10:14:27.080Z,11.60
2023-04-06T10:16:54.997Z,11.80
2023-04-06T10:19:33.479Z,12.00
2023-04-06T10:22:04.400Z,12.20
2023-04-06T10:24:31.964Z,12.40
2023-04-06T10:27:12.269Z,12.40
2023-04-06T10:29:52.345Z,12.60
2023-04-06T10:32:19.951Z,12.60
2023-04-06T10:34:47.656Z,12.60
2023-04-06T10:37:20.081Z,12.70
2023-04-06T10:39:58.579Z,12.80
2023-04-06T10:42:37.827Z,13.00
2023-04-06T10:45:21.888Z,13.10
2023-04-06T10:47:49.751Z,13.30
2023-04-06T10:50:18.411Z,13.40
2023-04-06T10:52:50.430Z,13.50
2023-04-06T10:55:20.047Z,13.70
2023-04-06T10:57:48.435Z,13.80
2023-04-06T11:00:17.105Z,13.90
2023-04-06T11:02:44.683Z,14.00
2023-04-06T11:05:16.590Z,14.10
2023-04-06T11:07:45.328Z,14.20
2023-04-06T11:10:17.599Z,14.20
2023-04-06T11:12:52.851Z,14.40
2023-04-06T11:15:20.384Z,14.50
2023-04-06T11:17:47.882Z,14.40
2023-04-06T11:20:15.656Z,14.60
2023-04-06T11:22:55.114Z,14.70
2023-04-06T11:25:22.741Z,15.00
2023-04-06T11:27:50.410Z,15.10
2023-04-06T11:30:18.384Z,15.10
2023-04-06T11:32:47.414Z,15.20
2023-04-06T11:35:24.805Z,15.30
2023-04-06T11:37:52.845Z,15.20
2023-04-06T11:40:25.929Z,15.10
2023-04-06T11:42:57.689Z,15.10
2023-04-06T11:45:25.634Z,15.20
2023-04-06T11:48:01.670Z,15.00
2023-04-06T11:50:37.675Z,14.90
2023-04-06T11:53:05.249Z,15.00
2023-04-06T11:55:40.191Z,15.10
2023-04-06T11:58:08.378Z,15.10
2023-04-06T12:00:36.447Z,14.70
2023-04-06T12:03:04.044Z,14.70
2023-04-06T12:05:33.171Z,14.60
2023-04-06T12:08:02.719Z,14.60
2023-04-06T12:10:31.350Z,14.70
2023-04-06T12:12:58.782Z,14.50
2023-04-06T12:15:26.223Z,14.60
2023-04-06T12:17:53.771Z,14.70
2023-04-06T12:20:25.956Z,14.70
2023-04-06T12:22:54.472Z,14.70
2023-04-06T12:25:22.257Z,14.50
2023-04-06T12:27:50.179Z,14.40
2023-04-06T12:30:18.072Z,14.50
2023-04-06T12:32:45.732Z,14.60
2023-04-06T12:35:16.725Z,14.60
2023-04-06T12:37:44.483Z,14.90
2023-04-06T12:40:12.971Z,14.80
2023-04-06T12:42:42.466Z,14.80
2023-04-06T12:45:11.331Z,14.70
2023-04-06T12:47:39.248Z,14.80
2023-04-06T12:50:08.217Z,14.90
2023-04-06T12:52:36.730Z,14.70
2023-04-06T12:55:06.353Z,14.90
2023-04-06T12:57:33.908Z,14.90
2023-04-06T13:00:01.513Z,15.10
2023-04-06T13:02:29.192Z,15.30
2023-04-06T13:04:56.922Z,15.30
2023-04-06T13:07:24.582Z,15.10
2023-04-06T13:09:53.241Z,15.10
2023-04-06T13:12:20.938Z,15.30
2023-04-06T13:14:52.120Z,15.40
2023-04-06T13:17:19.671Z,15.40
2023-04-06T13:19:47.220Z,15.40
2023-04-06T13:22:14.808Z,15.30
2023-04-06T13:24:42.353Z,15.30
2023-04-06T13:27:09.916Z,15.30
2023-04-06T13:29:38.550Z,15.40
2023-04-06T13:32:06.643Z,15.50
2023-04-06T13:34:34.287Z,15.60
2023-04-06T13:37:01.851Z,15.70
2023-04-06T13:39:29.384Z,15.60
2023-04-06T13:41:58.028Z,15.40
2023-04-06T13:44:26.187Z,15.20
2023-04-06T13:46:55.122Z,15.20
2023-04-06T13:49:23.619Z,15.30
2023-04-06T13:51:51.397Z,15.30
2023-04-06T13:54:18.923Z,15.30
2023-04-06T13:56:46.422Z,15.30
2023-04-06T13:59:14.098Z,15.40
2023-04-06T14:01:41.935Z,15.40
2023-04-06T14:04:09.461Z,15.50
2023-04-06T14:06:38.101Z,15.60
2023-04-06T14:09:05.625Z,15.60
2023-04-06T14:11:33.497Z,15.40
2023-04-06T14:14:01.418Z,15.30
2023-04-06T14:16:29.045Z,15.40
2023-04-06T14:18:58.901Z,15.60
2023-04-06T14:21:27.629Z,15.60
2023-04-06T14:23:56.249Z,15.40
2023-04-06T14:26:25.500Z,15.50
2023-04-06T14:28:53.966Z,15.20
2023-04-06T14:31:21.473Z,15.40
2023-04-06T14:33:48.965Z,15.70
2023-04-06T14:36:16.656Z,15.90
2023-04-06T14:38:45.119Z,16.10
2023-04-06T14:41:24.357Z,16.10
2023-04-06T14:43:53.811Z,16.20
2023-04-06T14:46:21.498Z,16.00
2023-04-06T14:48:49.256Z,15.90
2023-04-06T14:51:17.776Z,16.10
2023-04-06T14:53:46.903Z,16.20
2023-04-06T14:56:21.579Z,15.80
2023-04-06T14:58:49.771Z,15.80
2023-04-06T15:01:17.846Z,15.90
2023-04-06T15:03:45.813Z,16.00
2023-04-06T15:06:16.564Z,16.10
2023-04-06T15:08:44.834Z,16.00
2023-04-06T15:11:13.977Z,15.60
2023-04-06T15:13:42.672Z,15.50
2023-04-06T15:16:10.365Z,15.40
2023-04-06T15:18:37.899Z,15.30
2023-04-06T15:21:05.637Z,15.20
2023-04-06T15:23:35.164Z,15.30
2023-04-06T15:26:02.997Z,15.40
2023-04-06T15:28:30.582Z,15.20
2023-04-06T15:30:58.680Z,15.20
2023-04-06T15:33:26.358Z,15.20
2023-04-06T15:35:53.865Z,15.00
2023-04-06T15:38:22.064Z,14.90
2023-04-06T15:40:50.517Z,14.90
2023-04-06T15:43:18.094Z,14.90
2023-04-06T15:45:45.576Z,15.00
2023-04-06T15:48:13.024Z,14.70
2023-04-06T15:50:40.599Z,14.70
2023-04-06T15:53:08.963Z,14.80
2023-04-06T15:55:36.456Z,14.80
2023-04-06T15:58:03.903Z,14.50
2023-04-06T16:00:31.793Z,14.30
2023-04-06T16:02:59.330Z,14.30
2023-04-06T16:05:29.986Z,14.30
2023-04-06T16:07:58.505Z,14.30
2023-04-06T16:10:26.276Z,14.40
2023-04-06T16:12:53.657Z,14.40
2023-04-06T16:15:21.211Z,14.20
2023-04-06T16:17:48.638Z,14.20
2023-04-06T16:20:16.415Z,14.10
2023-04-06T16:22:43.948Z,14.10
2023-04-06T16:25:12.761Z,14.10
2023-04-06T16:27:40.254Z,14.10
2023-04-06T16:30:09.634Z,14.20
2023-04-06T16:32:37.114Z,14.30
2023-04-06T16:35:07.981Z,14.40
2023-04-06T16:37:36.199Z,14.40
2023-04-06T16:40:04.065Z,14.40
2023-04-06T16:42:31.606Z,14.40
2023-04-06T16:44:58.986Z,14.30
2023-04-06T16:47:27.308Z,14.30
2023-04-06T16:49:55.097Z,14.30
2023-04-06T16:52:35.156Z,14.40
2023-04-06T16:55:03.483Z,14.40
2023-04-06T16:57:30.953Z,14.40
2023-04-06T16:59:58.726Z,14.50
2023-04-06T17:02:26.805Z,14.50
2023-04-06T17:04:54.308Z,14.40
2023-04-06T17:07:25.854Z,14.40
2023-04-06T17:09:53.341Z,14.40
2023-04-06T17:12:20.799Z,14.40
2023-04-06T17:14:48.232Z,14.40
2023-04-06T17:17:16.768Z,14.40
2023-04-06T17:19:44.293Z,14.40
2023-04-06T17:22:11.715Z,14.30
2023-04-06T17:24:39.091Z,14.30
2023-04-06T17:27:06.737Z,14.30
2023-04-06T17:29:36.885Z,14.20
2023-04-06T17:32:04.363Z,14.20
2023-04-06T17:34:31.743Z,14.20
2023-04-06T17:36:59.255Z,14.20
2023-04-06T17:39:26.711Z,14.20
2023-04-06T17:41:54.189Z,14.10
2023-04-06T17:44:21.654Z,14.10
2023-04-06T17:46:49.139Z,14.10
2023-04-06T17:49:16.670Z,14.00
2023-04-06T17:51:45.215Z,14.10
2023-04-06T17:54:13.764Z,14.10
2023-04-06T17:56:44.992Z,14.20
2023-04-06T17:59:13.330Z,14.10
2023-04-06T18:01:41.608Z,14.00
2023-04-06T18:04:09.925Z,14.00
2023-04-06T18:06:40.259Z,13.80
2023-04-06T18:09:09.823Z,13.70
2023-04-06T18:11:38.308Z,13.60
2023-04-06T18:14:12.851Z,13.60
2023-04-06T18:16:43.634Z,13.50
2023-04-06T18:19:11.913Z,13.50
2023-04-06T18:21:40.318Z,13.50
2023-04-06T18:24:12.366Z,13.30
2023-04-06T18:26:43.489Z,13.40
2023-04-06T18:29:12.237Z,13.40
2023-04-06T18:31:40.619Z,13.40
2023-04-06T18:34:08.826Z,13.40
2023-04-06T18:36:37.466Z,13.40
2023-04-06T18:39:06.003Z,13.30
2023-04-06T18:41:34.648Z,13.30
2023-04-06T18:44:03.726Z,13.20
2023-04-06T18:46:31.820Z,13.30
2023-04-06T18:49:01.374Z,13.30
2023-04-06T18:51:32.817Z,13.20
2023-04-06T18:54:05.145Z,13.00
2023-04-06T18:56:34.799Z,12.90
2023-04-06T18:59:03.206Z,12.70
2023-04-06T19:01:33.776Z,12.70
2023-04-06T19:04:02.659Z,12.80
2023-04-06T19:06:34.106Z,12.70
2023-04-06T19:09:05.240Z,12.80
2023-04-06T19:11:33.528Z,12.80
2023-04-06T19:14:01.656Z,12.80
2023-04-06T19:16:37.240Z,12.80
2023-04-06T19:19:06.093Z,12.80
2023-04-06T19:21:37.846Z,12.80
2023-04-06T19:24:06.331Z,12.90
2023-04-06T19:26:35.368Z,12.90
2023-04-06T19:29:04.451Z,13.00
2023-04-06T19:31:44.274Z,12.90
2023-04-06T19:34:17.865Z,13.00
2023-04-06T19:36:47.127Z,12.90
2023-04-06T19:39:17.736Z,13.00
2023-04-06T19:41:48.120Z,13.00
2023-04-06T19:44:16.688Z,13.10
2023-04-06T19:46:46.763Z,13.10
2023-04-06T19:49:15.328Z,13.10
2023-04-06T19:51:43.688Z,13.10
2023-04-06T19:54:11.956Z,13.10
2023-04-06T19:56:40.808Z,13.10
2023-04-06T19:59:11.233Z,13.00
2023-04-06T20:01:39.670Z,13.00
2023-04-06T20:04:10.723Z,12.80
2023-04-06T20:06:39.087Z,12.70
2023-04-06T20:09:07.418Z,12.80
2023-04-06T20:11:36.599Z,12.80
2023-04-06T20:14:08.614Z,12.80
2023-04-06T20:16:37.041Z,12.70
2023-04-06T20:19:05.158Z,12.60
2023-04-06T20:21:33.421Z,12.40
2023-04-06T20:24:02.581Z,12.50
2023-04-06T20:26:30.859Z,12.40
2023-04-06T20:28:58.939Z,12.40
2023-04-06T20:31:29.284Z,12.30
2023-04-06T20:33:57.515Z,12.20
2023-04-06T20:36:31.208Z,12.30
2023-04-06T20:38:59.293Z,12.20
2023-04-06T20:41:28.808Z,12.30
2023-04-06T20:43:57.177Z,12.20
2023-04-06T20:46:34.492Z,12.30
2023-04-06T20:49:04.297Z,12.30
2023-04-06T20:51:32.786Z,12.30
2023-04-06T20:54:01.875Z,12.40
2023-04-06T20:56:30.320Z,12.30
2023-04-06T20:59:00.000Z,12.40
2023-04-06T21:01:29.634Z,12.50
2023-04-06T21:03:58.178Z,12.50
2023-04-06T21:06:32.477Z,12.50
2023-04-06T21:09:02.214Z,12.60
2023-04-06T21:11:31.097Z,12.60
2023-04-06T21:13:59.311Z,12.60
2023-04-06T21:16:28.220Z,12.70
2023-04-06T21:18:56.418Z,12.60
2023-04-06T21:21:24.886Z,12.70
2023-04-06T21:23:54.269Z,12.70
2023-04-06T21:26:22.621Z,12.60
2023-04-06T21:28:50.836Z,12.60
2023-04-06T21:31:24.894Z,12.40
2023-04-06T21:33:53.247Z,12.30
2023-04-06T21:36:21.445Z,12.30
2023-04-06T21:38:49.643Z,12.30
2023-04-06T21:41:17.865Z,12.30
2023-04-06T21:43:46.108Z,12.20
2023-04-06T21:46:14.634Z,12.10
2023-04-06T21:48:42.897Z,12.10
2023-04-06T21:51:22.922Z,12.10
2023-04-06T21:53:53.147Z,12.00
2023-04-06T21:56:26.757Z,12.10
2023-04-06T21:58:55.235Z,12.10
2023-04-06T22:01:24.126Z,12.10
2023-04-06T22:03:53.285Z,12.00
2023-04-06T22:06:23.165Z,12.10
2023-04-06T22:08:51.514Z,12.20
2023-04-06T22:11:20.029Z,12.20
2023-04-06T22:13:48.880Z,12.20
2023-04-06T22:16:18.927Z,12.20
2023-04-06T22:18:47.322Z,12.10
2023-04-06T22:21:15.838Z,12.10
2023-04-06T22:23:44.105Z,12.10
2023-04-06T22:26:13.138Z,12.10
2023-04-06T22:28:41.401Z,12.20
2023-04-06T22:31:09.846Z,12.10
2023-04-06T22:33:40.651Z,11.90
2023-04-06T22:36:09.031Z,11.90
2023-04-06T22:38:37.384Z,11.90
2023-04-06T22:41:07.341Z,11.80
2023-04-06T22:43:36.690Z,11.80
2023-04-06T22:46:10.510Z,11.90
2023-04-06T22:48:38.819Z,11.90
2023-04-06T22:51:07.125Z,12.00
2023-04-06T22:53:35.126Z,12.10
2023-04-06T22:56:03.326Z,12.10
2023-04-06T22:58:31.365Z,12.10
2023-04-06T23:00:59.447Z,12.10
2023-04-06T23:03:27.833Z,12.10
2023-04-06T23:05:56.612Z,12.10
2023-04-06T23:08:24.807Z,12.10
2023-04-06T23:10:53.043Z,12.10
2023-04-06T23:13:21.303Z,12.20
2023-04-06T23:15:49.513Z,12.20
2023-04-06T23:18:17.593Z,12.20
2023-04-06T23:20:48.672Z,12.20
2023-04-06T23:23:16.852Z,12.20
2023-04-06T23:25:45.173Z,12.30
2023-04-06T23:28:13.756Z,12.30
2023-04-06T23:30:42.056Z,12.30
2023-04-06T23:33:10.428Z,12.30
2023-04-06T23:35:39.313Z,12.30
2023-04-06T23:38:07.607Z,12.30
